Phu Quoc Airport
VVPQ : now visible

Airfield :











YOU CAN JOIN US ON...

 
LOGIN :

Register | Disclaimer

   EN    FR    IT 

 









Legend :    VFR   Marginal VFR   IFR   Intensive IFR   Very Intensive IFR
Visi :
Ceiling :
>= 8 km
>= 3000ft
5 to 8 km
1000 to 3000 ft
1500m to 5 km
500 to 1000 ft
800 to 1500m
200 to 500 ft
< 800m
< 200 ft
Symbols :   Thunderstorms  Fog  Heavy snow  Heavy precipitations  Wind > 20 kt






- Airport Elevation : 23 ft
- IATA code : PQC


VVPQ - Phu Quoc

CURRENT METAR :
  • 230200Z 07008KT 9999 FEW017 29/22 Q1014 NOSIG

EXPIRED METARs :
  • 230130Z 08007KT 9999 FEW017 29/22 Q1014 NOSIG
  • 230100Z 06004KT 9999 FEW017 28/23 Q1013 NOSIG
  • 230030Z 05003KT 9999 FEW017 26/23 Q1013 NOSIG
  • 230000Z VRB01KT CAVOK 24/21 Q1012 NOSIG
  • 222330Z VRB01KT 9999 FEW015 24/21 Q1012 NOSIG

TAF TAF VVPQ
Valid from the 23 at 00:00 until the 24 at 00:00 UTC


222300Z 2300/2324 VRB03KT 9999 SCT017
BECMG 2303/2304 10010KT



MET'MAP, your aeronautical weather chart ! - Copyright ORBIFLY December 2007 - Disclaimer

ORBIFLY MET'MAP TEAM :

Programming & Development : Alexandra Zaïnal
Concept & original design : Baudouin d'Aumeries
Assistance for programming : Marc-Olivier Méhu
Technical & hardware support : Manuel Goepfert

Contact : metmap@orbifly.com




SOURCES & CREDITS :

   NOAA       Earth
Advisory